sensor_id;sensor_type;location;lat;lon;timestamp;pressure;altitude;pressure_sealevel;temperature;humidity
54850;BME280;47660;51.334;12.396;2023-07-28T00:00:43;99089.66;;;29.45;62.52
54850;BME280;47660;51.334;12.396;2023-07-28T00:03:09;99091.16;;;29.80;61.13
54850;BME280;47660;51.334;12.396;2023-07-28T00:05:39;99081.00;;;30.25;59.95
54850;BME280;47660;51.334;12.396;2023-07-28T00:08:16;99073.03;;;30.23;60.43
54850;BME280;47660;51.334;12.396;2023-07-28T00:10:42;99090.06;;;28.51;69.82
54850;BME280;47660;51.334;12.396;2023-07-28T00:13:08;99079.03;;;29.31;66.57
54850;BME280;47660;51.334;12.396;2023-07-28T00:15:36;99077.09;;;29.93;61.98
54850;BME280;47660;51.334;12.396;2023-07-28T00:18:04;99078.97;;;29.93;60.42
54850;BME280;47660;51.334;12.396;2023-07-28T00:20:32;99070.28;;;29.52;63.98
54850;BME280;47660;51.334;12.396;2023-07-28T00:22:57;99078.34;;;28.85;66.65
54850;BME280;47660;51.334;12.396;2023-07-28T00:25:28;99074.38;;;29.49;66.24
54850;BME280;47660;51.334;12.396;2023-07-28T00:27:55;99068.94;;;29.99;64.39
54850;BME280;47660;51.334;12.396;2023-07-28T00:30:23;99070.69;;;29.60;62.20
54850;BME280;47660;51.334;12.396;2023-07-28T00:32:51;99069.81;;;30.04;64.49
54850;BME280;47660;51.334;12.396;2023-07-28T00:35:18;99065.38;;;29.76;63.09
54850;BME280;47660;51.334;12.396;2023-07-28T00:37:44;99066.91;;;30.16;60.95
54850;BME280;47660;51.334;12.396;2023-07-28T00:40:10;99063.56;;;29.03;66.15
54850;BME280;47660;51.334;12.396;2023-07-28T00:42:36;99063.94;;;30.18;61.40
54850;BME280;47660;51.334;12.396;2023-07-28T00:45:02;99063.69;;;30.85;57.99
54850;BME280;47660;51.334;12.396;2023-07-28T00:47:27;99068.56;;;30.17;60.66
54850;BME280;47660;51.334;12.396;2023-07-28T00:49:56;99065.16;;;31.46;57.99
54850;BME280;47660;51.334;12.396;2023-07-28T00:52:21;99069.25;;;30.02;59.62
54850;BME280;47660;51.334;12.396;2023-07-28T00:54:47;99067.38;;;29.58;62.27
54850;BME280;47660;51.334;12.396;2023-07-28T00:57:15;99059.31;;;31.32;57.28
54850;BME280;47660;51.334;12.396;2023-07-28T00:59:41;99070.69;;;30.37;59.09
54850;BME280;47660;51.334;12.396;2023-07-28T01:02:12;99049.66;;;31.77;56.09
54850;BME280;47660;51.334;12.396;2023-07-28T01:04:40;99051.25;;;30.72;59.60
54850;BME280;47660;51.334;12.396;2023-07-28T01:07:23;99052.63;;;31.12;57.97
54850;BME280;47660;51.334;12.396;2023-07-28T01:10:14;99052.78;;;30.95;58.21
54850;BME280;47660;51.334;12.396;2023-07-28T01:12:45;99049.09;;;31.75;56.10
54850;BME280;47660;51.334;12.396;2023-07-28T01:15:10;99057.38;;;29.47;60.99
54850;BME280;47660;51.334;12.396;2023-07-28T01:17:38;99053.22;;;30.16;60.10
54850;BME280;47660;51.334;12.396;2023-07-28T01:20:04;99055.03;;;30.33;59.67
54850;BME280;47660;51.334;12.396;2023-07-28T01:26:03;99054.97;;;30.28;59.92
54850;BME280;47660;51.334;12.396;2023-07-28T01:28:30;99059.41;;;28.78;65.70
54850;BME280;47660;51.334;12.396;2023-07-28T01:30:59;99047.34;;;29.80;63.98
54850;BME280;47660;51.334;12.396;2023-07-28T01:33:24;99051.47;;;30.32;59.16
54850;BME280;47660;51.334;12.396;2023-07-28T01:35:50;99050.00;;;30.90;56.69
54850;BME280;47660;51.334;12.396;2023-07-28T01:38:15;99047.13;;;29.87;61.35
54850;BME280;47660;51.334;12.396;2023-07-28T01:40:41;99049.06;;;30.41;59.13
54850;BME280;47660;51.334;12.396;2023-07-28T01:43:07;99045.13;;;29.55;60.71
54850;BME280;47660;51.334;12.396;2023-07-28T01:45:32;99043.13;;;30.82;57.19
54850;BME280;47660;51.334;12.396;2023-07-28T01:48:00;99054.50;;;28.80;64.55
54850;BME280;47660;51.334;12.396;2023-07-28T01:50:30;99052.25;;;29.78;61.38
54850;BME280;47660;51.334;12.396;2023-07-28T01:52:59;99039.59;;;31.40;56.69
54850;BME280;47660;51.334;12.396;2023-07-28T01:55:24;99037.88;;;30.48;58.32
54850;BME280;47660;51.334;12.396;2023-07-28T01:58:00;99033.97;;;31.14;56.63
54850;BME280;47660;51.334;12.396;2023-07-28T02:00:31;99042.63;;;31.38;54.99
54850;BME280;47660;51.334;12.396;2023-07-28T02:02:57;99047.59;;;30.01;58.83
54850;BME280;47660;51.334;12.396;2023-07-28T02:05:27;99033.69;;;30.07;59.32
54850;BME280;47660;51.334;12.396;2023-07-28T02:07:52;99039.16;;;31.10;55.61
54850;BME280;47660;51.334;12.396;2023-07-28T02:10:18;99034.41;;;30.95;55.11
54850;BME280;47660;51.334;12.396;2023-07-28T02:12:43;99041.06;;;30.34;57.39
54850;BME280;47660;51.334;12.396;2023-07-28T02:15:09;99042.72;;;30.68;55.44
54850;BME280;47660;51.334;12.396;2023-07-28T02:17:40;99037.06;;;30.85;55.61
54850;BME280;47660;51.334;12.396;2023-07-28T02:20:09;99038.81;;;30.26;57.32
54850;BME280;47660;51.334;12.396;2023-07-28T02:22:39;99030.06;;;30.62;57.79
54850;BME280;47660;51.334;12.396;2023-07-28T02:25:05;99036.13;;;31.65;52.53
54850;BME280;47660;51.334;12.396;2023-07-28T02:27:31;99057.94;;;29.49;60.36
54850;BME280;47660;51.334;12.396;2023-07-28T02:29:56;99054.81;;;29.40;62.08
54850;BME280;47660;51.334;12.396;2023-07-28T02:32:24;99038.28;;;31.48;56.33
54850;BME280;47660;51.334;12.396;2023-07-28T02:34:54;99038.78;;;32.44;52.56
54850;BME280;47660;51.334;12.396;2023-07-28T02:37:20;99034.53;;;31.75;53.49
54850;BME280;47660;51.334;12.396;2023-07-28T02:39:47;99047.97;;;30.09;57.59
54850;BME280;47660;51.334;12.396;2023-07-28T02:42:15;99041.47;;;30.86;57.76
54850;BME280;47660;51.334;12.396;2023-07-28T02:44:41;99063.59;;;29.42;61.03
54850;BME280;47660;51.334;12.396;2023-07-28T02:47:09;99058.09;;;30.42;57.10
54850;BME280;47660;51.334;12.396;2023-07-28T02:49:40;99044.91;;;30.06;60.55
54850;BME280;47660;51.334;12.396;2023-07-28T02:52:09;99051.88;;;30.84;57.50
54850;BME280;47660;51.334;12.396;2023-07-28T02:54:34;99041.91;;;31.64;52.85
54850;BME280;47660;51.334;12.396;2023-07-28T02:57:00;99046.94;;;30.81;54.69
54850;BME280;47660;51.334;12.396;2023-07-28T02:59:27;99032.28;;;31.71;52.48
54850;BME280;47660;51.334;12.396;2023-07-28T03:01:53;99039.50;;;29.61;59.00
54850;BME280;47660;51.334;12.396;2023-07-28T03:04:22;99043.88;;;30.77;55.87
54850;BME280;47660;51.334;12.396;2023-07-28T03:06:48;99061.13;;;29.63;59.94
54850;BME280;47660;51.334;12.396;2023-07-28T03:09:14;99061.91;;;29.58;60.64
54850;BME280;47660;51.334;12.396;2023-07-28T03:11:42;99065.25;;;30.15;59.11
54850;BME280;47660;51.334;12.396;2023-07-28T03:14:08;99076.16;;;30.37;56.79
54850;BME280;47660;51.334;12.396;2023-07-28T03:16:33;99073.66;;;30.96;54.53
54850;BME280;47660;51.334;12.396;2023-07-28T03:19:01;99067.78;;;29.94;57.90
54850;BME280;47660;51.334;12.396;2023-07-28T03:21:30;99065.53;;;30.41;57.26
54850;BME280;47660;51.334;12.396;2023-07-28T03:23:58;99074.06;;;29.95;57.69
54850;BME280;47660;51.334;12.396;2023-07-28T03:26:24;99075.78;;;29.34;59.48
54850;BME280;47660;51.334;12.396;2023-07-28T03:28:51;99070.03;;;29.75;58.56
54850;BME280;47660;51.334;12.396;2023-07-28T03:31:16;99080.91;;;29.70;58.23
54850;BME280;47660;51.334;12.396;2023-07-28T03:33:42;99081.13;;;30.68;55.93
54850;BME280;47660;51.334;12.396;2023-07-28T03:36:07;99087.00;;;29.33;60.37
54850;BME280;47660;51.334;12.396;2023-07-28T03:38:35;99088.13;;;29.54;59.10
54850;BME280;47660;51.334;12.396;2023-07-28T03:41:01;99089.94;;;29.71;58.77
54850;BME280;47660;51.334;12.396;2023-07-28T03:43:26;99085.97;;;28.83;61.75
54850;BME280;47660;51.334;12.396;2023-07-28T03:45:52;99095.91;;;29.90;57.47
54850;BME280;47660;51.334;12.396;2023-07-28T03:48:19;99082.94;;;29.58;59.46
54850;BME280;47660;51.334;12.396;2023-07-28T03:50:45;99083.72;;;29.98;58.37
54850;BME280;47660;51.334;12.396;2023-07-28T03:53:10;99081.00;;;29.98;56.26
54850;BME280;47660;51.334;12.396;2023-07-28T03:55:36;99074.69;;;30.24;57.19
54850;BME280;47660;51.334;12.396;2023-07-28T03:58:01;99063.84;;;31.10;54.50
54850;BME280;47660;51.334;12.396;2023-07-28T04:00:28;99072.06;;;31.05;53.82
54850;BME280;47660;51.334;12.396;2023-07-28T04:02:56;99076.97;;;30.05;56.80
54850;BME280;47660;51.334;12.396;2023-07-28T04:05:24;99066.03;;;31.03;55.87
54850;BME280;47660;51.334;12.396;2023-07-28T04:07:49;99074.47;;;30.31;55.87
54850;BME280;47660;51.334;12.396;2023-07-28T04:10:22;99078.38;;;31.06;55.58
54850;BME280;47660;51.334;12.396;2023-07-28T04:12:54;99071.47;;;31.46;54.41
54850;BME280;47660;51.334;12.396;2023-07-28T04:15:20;99074.91;;;29.29;60.31
54850;BME280;47660;51.334;12.396;2023-07-28T04:17:45;99075.28;;;30.32;55.89
54850;BME280;47660;51.334;12.396;2023-07-28T04:20:11;99081.72;;;30.15;57.43
54850;BME280;47660;51.334;12.396;2023-07-28T04:22:41;99074.81;;;30.67;54.77
54850;BME280;47660;51.334;12.396;2023-07-28T04:25:07;99080.25;;;29.01;60.52
54850;BME280;47660;51.334;12.396;2023-07-28T04:27:32;99081.56;;;29.55;59.98
54850;BME280;47660;51.334;12.396;2023-07-28T04:30:05;99080.09;;;30.79;55.13
54850;BME280;47660;51.334;12.396;2023-07-28T04:32:30;99091.25;;;28.72;63.39
54850;BME280;47660;51.334;12.396;2023-07-28T04:34:56;99091.06;;;30.19;57.84
54850;BME280;47660;51.334;12.396;2023-07-28T04:37:24;99086.31;;;29.03;62.12
54850;BME280;47660;51.334;12.396;2023-07-28T04:39:49;99084.97;;;29.68;59.60
54850;BME280;47660;51.334;12.396;2023-07-28T04:42:15;99082.22;;;28.38;64.72
54850;BME280;47660;51.334;12.396;2023-07-28T04:44:42;99079.84;;;29.49;62.11
54850;BME280;47660;51.334;12.396;2023-07-28T04:47:07;99085.34;;;28.29;66.27
54850;BME280;47660;51.334;12.396;2023-07-28T04:49:37;99092.41;;;29.28;63.03
54850;BME280;47660;51.334;12.396;2023-07-28T04:52:03;99083.09;;;29.29;62.52
54850;BME280;47660;51.334;12.396;2023-07-28T04:54:29;99085.06;;;30.22;58.99
54850;BME280;47660;51.334;12.396;2023-07-28T04:56:54;99099.16;;;30.04;58.79
54850;BME280;47660;51.334;12.396;2023-07-28T04:59:20;99087.56;;;30.89;56.79
54850;BME280;47660;51.334;12.396;2023-07-28T05:01:45;99081.88;;;30.96;55.42
54850;BME280;47660;51.334;12.396;2023-07-28T05:04:13;99095.34;;;29.65;60.12
54850;BME280;47660;51.334;12.396;2023-07-28T05:06:38;99094.91;;;29.96;57.73
54850;BME280;47660;51.334;12.396;2023-07-28T05:09:04;99094.25;;;29.05;62.00
54850;BME280;47660;51.334;12.396;2023-07-28T05:11:29;99104.88;;;30.57;57.14
54850;BME280;47660;51.334;12.396;2023-07-28T05:13:54;99113.53;;;29.32;59.87
54850;BME280;47660;51.334;12.396;2023-07-28T05:16:20;99103.53;;;29.60;58.30
54850;BME280;47660;51.334;12.396;2023-07-28T05:18:45;99109.94;;;27.88;66.99
54850;BME280;47660;51.334;12.396;2023-07-28T05:21:13;99111.50;;;29.05;65.64
54850;BME280;47660;51.334;12.396;2023-07-28T05:23:38;99115.91;;;28.89;62.10
54850;BME280;47660;51.334;12.396;2023-07-28T05:26:06;99115.00;;;30.02;58.70
54850;BME280;47660;51.334;12.396;2023-07-28T05:28:34;99135.19;;;29.34;62.85
54850;BME280;47660;51.334;12.396;2023-07-28T05:31:06;99121.16;;;30.14;60.81
54850;BME280;47660;51.334;12.396;2023-07-28T05:33:32;99125.94;;;29.57;59.63
54850;BME280;47660;51.334;12.396;2023-07-28T05:36:04;99126.28;;;30.05;60.37
54850;BME280;47660;51.334;12.396;2023-07-28T05:38:32;99129.88;;;29.89;59.27
54850;BME280;47660;51.334;12.396;2023-07-28T05:40:59;99126.59;;;30.64;57.13
54850;BME280;47660;51.334;12.396;2023-07-28T05:43:28;99135.88;;;28.90;62.00
54850;BME280;47660;51.334;12.396;2023-07-28T05:45:54;99128.50;;;31.29;54.16
54850;BME280;47660;51.334;12.396;2023-07-28T05:48:20;99144.16;;;29.91;58.03
54850;BME280;47660;51.334;12.396;2023-07-28T05:50:45;99146.13;;;29.73;58.70
54850;BME280;47660;51.334;12.396;2023-07-28T05:53:11;99146.81;;;28.90;61.80
54850;BME280;47660;51.334;12.396;2023-07-28T05:55:36;99149.38;;;30.97;55.52
54850;BME280;47660;51.334;12.396;2023-07-28T05:58:04;99142.75;;;29.10;60.38
54850;BME280;47660;51.334;12.396;2023-07-28T06:00:32;99162.19;;;29.47;59.21
54850;BME280;47660;51.334;12.396;2023-07-28T06:02:58;99169.31;;;28.34;64.04
54850;BME280;47660;51.334;12.396;2023-07-28T06:05:23;99158.63;;;27.92;67.43
54850;BME280;47660;51.334;12.396;2023-07-28T06:07:51;99154.38;;;30.45;58.19
54850;BME280;47660;51.334;12.396;2023-07-28T06:10:16;99165.19;;;29.46;59.32
54850;BME280;47660;51.334;12.396;2023-07-28T06:12:42;99159.75;;;30.35;57.35
54850;BME280;47660;51.334;12.396;2023-07-28T06:15:08;99164.13;;;29.30;60.20
54850;BME280;47660;51.334;12.396;2023-07-28T06:17:34;99164.09;;;29.86;58.10
54850;BME280;47660;51.334;12.396;2023-07-28T06:20:01;99172.50;;;29.06;61.40
54850;BME280;47660;51.334;12.396;2023-07-28T06:22:27;99162.78;;;31.26;55.09
54850;BME280;47660;51.334;12.396;2023-07-28T06:24:54;99175.78;;;29.99;58.62
54850;BME280;47660;51.334;12.396;2023-07-28T06:27:20;99175.00;;;31.94;51.78
54850;BME280;47660;51.334;12.396;2023-07-28T06:29:48;99172.53;;;30.51;57.92
54850;BME280;47660;51.334;12.396;2023-07-28T06:32:15;99177.09;;;29.96;58.01
54850;BME280;47660;51.334;12.396;2023-07-28T06:34:45;99184.75;;;30.16;57.50
54850;BME280;47660;51.334;12.396;2023-07-28T06:37:13;99180.31;;;30.10;57.96
54850;BME280;47660;51.334;12.396;2023-07-28T06:39:41;99183.84;;;30.33;58.74
54850;BME280;47660;51.334;12.396;2023-07-28T06:42:07;99188.44;;;31.09;56.04
54850;BME280;47660;51.334;12.396;2023-07-28T06:44:33;99193.06;;;30.49;55.75
54850;BME280;47660;51.334;12.396;2023-07-28T06:47:00;99188.91;;;32.35;52.80
54850;BME280;47660;51.334;12.396;2023-07-28T06:49:28;99187.78;;;30.64;54.98
54850;BME280;47660;51.334;12.396;2023-07-28T06:51:54;99189.56;;;33.10;47.97
54850;BME280;47660;51.334;12.396;2023-07-28T06:54:22;99194.69;;;31.32;51.89
54850;BME280;47660;51.334;12.396;2023-07-28T06:56:47;99194.91;;;30.16;55.29
54850;BME280;47660;51.334;12.396;2023-07-28T06:59:13;99194.81;;;29.49;57.35
54850;BME280;47660;51.334;12.396;2023-07-28T07:01:38;99196.97;;;29.86;57.27
54850;BME280;47660;51.334;12.396;2023-07-28T07:04:04;99193.34;;;31.07;53.40
54850;BME280;47660;51.334;12.396;2023-07-28T07:06:30;99195.34;;;31.50;52.41
54850;BME280;47660;51.334;12.396;2023-07-28T07:08:57;99198.66;;;30.09;55.86
54850;BME280;47660;51.334;12.396;2023-07-28T07:11:25;99202.75;;;30.84;54.15
54850;BME280;47660;51.334;12.396;2023-07-28T07:13:52;99200.75;;;30.02;56.44
54850;BME280;47660;51.334;12.396;2023-07-28T07:16:18;99199.72;;;29.47;58.34
54850;BME280;47660;51.334;12.396;2023-07-28T07:18:46;99199.28;;;30.39;56.53
54850;BME280;47660;51.334;12.396;2023-07-28T07:21:12;99197.91;;;30.42;54.94
54850;BME280;47660;51.334;12.396;2023-07-28T07:23:37;99190.38;;;31.47;52.90
54850;BME280;47660;51.334;12.396;2023-07-28T07:26:03;99191.38;;;31.30;52.56
54850;BME280;47660;51.334;12.396;2023-07-28T07:28:31;99195.09;;;29.70;57.11
54850;BME280;47660;51.334;12.396;2023-07-28T07:31:01;99198.22;;;31.33;53.68
54850;BME280;47660;51.334;12.396;2023-07-28T07:33:29;99199.75;;;31.99;51.66
54850;BME280;47660;51.334;12.396;2023-07-28T07:35:57;99196.41;;;31.11;51.94
54850;BME280;47660;51.334;12.396;2023-07-28T07:38:23;99203.66;;;30.62;53.22
54850;BME280;47660;51.334;12.396;2023-07-28T07:40:50;99198.69;;;30.87;51.92
54850;BME280;47660;51.334;12.396;2023-07-28T07:43:19;99211.19;;;31.37;50.27
54850;BME280;47660;51.334;12.396;2023-07-28T07:45:45;99201.16;;;30.38;53.40
54850;BME280;47660;51.334;12.396;2023-07-28T07:48:12;99201.63;;;31.88;49.86
54850;BME280;47660;51.334;12.396;2023-07-28T07:50:38;99201.41;;;31.52;50.95
54850;BME280;47660;51.334;12.396;2023-07-28T07:53:03;99194.25;;;31.51;50.36
54850;BME280;47660;51.334;12.396;2023-07-28T07:55:29;99207.53;;;30.94;51.14
54850;BME280;47660;51.334;12.396;2023-07-28T07:57:56;99189.84;;;31.50;51.00
54850;BME280;47660;51.334;12.396;2023-07-28T08:00:24;99205.56;;;32.03;49.24
54850;BME280;47660;51.334;12.396;2023-07-28T08:02:50;99205.94;;;31.74;49.29
54850;BME280;47660;51.334;12.396;2023-07-28T08:05:17;99203.81;;;32.55;47.20
54850;BME280;47660;51.334;12.396;2023-07-28T08:07:43;99203.59;;;31.98;47.95
54850;BME280;47660;51.334;12.396;2023-07-28T08:10:09;99206.28;;;32.56;46.68
54850;BME280;47660;51.334;12.396;2023-07-28T08:12:34;99222.84;;;31.55;49.79
54850;BME280;47660;51.334;12.396;2023-07-28T08:15:00;99221.59;;;31.35;48.91
54850;BME280;47660;51.334;12.396;2023-07-28T08:17:27;99211.88;;;31.60;47.89
54850;BME280;47660;51.334;12.396;2023-07-28T08:19:53;99225.34;;;32.94;46.14
54850;BME280;47660;51.334;12.396;2023-07-28T08:22:18;99215.06;;;32.38;47.17
54850;BME280;47660;51.334;12.396;2023-07-28T08:24:48;99232.94;;;31.49;48.13
54850;BME280;47660;51.334;12.396;2023-07-28T08:27:14;99244.09;;;31.05;49.08
54850;BME280;47660;51.334;12.396;2023-07-28T08:29:41;99236.34;;;33.30;44.50
54850;BME280;47660;51.334;12.396;2023-07-28T08:32:10;99240.41;;;32.60;45.76
54850;BME280;47660;51.334;12.396;2023-07-28T08:34:35;99237.94;;;33.88;43.55
54850;BME280;47660;51.334;12.396;2023-07-28T08:37:00;99251.88;;;32.32;46.13
54850;BME280;47660;51.334;12.396;2023-07-28T08:39:28;99255.00;;;32.61;45.65
54850;BME280;47660;51.334;12.396;2023-07-28T08:42:00;99246.84;;;33.02;46.16
54850;BME280;47660;51.334;12.396;2023-07-28T08:44:31;99256.19;;;33.32;46.08
54850;BME280;47660;51.334;12.396;2023-07-28T08:47:04;99242.34;;;32.65;46.32
54850;BME280;47660;51.334;12.396;2023-07-28T08:49:35;99245.44;;;33.15;45.10
54850;BME280;47660;51.334;12.396;2023-07-28T08:52:02;99245.44;;;33.62;43.92
54850;BME280;47660;51.334;12.396;2023-07-28T08:54:30;99255.13;;;33.23;44.30
54850;BME280;47660;51.334;12.396;2023-07-28T08:56:58;99260.28;;;31.71;47.27
54850;BME280;47660;51.334;12.396;2023-07-28T08:59:25;99251.03;;;32.31;47.63
54850;BME280;47660;51.334;12.396;2023-07-28T09:01:53;99251.31;;;32.29;46.85
54850;BME280;47660;51.334;12.396;2023-07-28T09:04:22;99248.63;;;35.16;41.74
54850;BME280;47660;51.334;12.396;2023-07-28T09:06:48;99258.97;;;33.17;45.85
54850;BME280;47660;51.334;12.396;2023-07-28T09:09:15;99255.31;;;33.89;44.14
54850;BME280;47660;51.334;12.396;2023-07-28T09:11:48;99255.81;;;34.12;43.54
54850;BME280;47660;51.334;12.396;2023-07-28T09:14:16;99253.31;;;34.76;41.59
54850;BME280;47660;51.334;12.396;2023-07-28T09:16:47;99257.66;;;34.32;42.49
54850;BME280;47660;51.334;12.396;2023-07-28T09:19:17;99268.00;;;33.07;45.07
54850;BME280;47660;51.334;12.396;2023-07-28T09:21:43;99269.09;;;33.89;43.36
54850;BME280;47660;51.334;12.396;2023-07-28T09:24:12;99265.88;;;32.30;46.79
54850;BME280;47660;51.334;12.396;2023-07-28T09:26:45;99269.69;;;33.50;44.19
54850;BME280;47660;51.334;12.396;2023-07-28T09:29:17;99260.59;;;33.08;44.72
54850;BME280;47660;51.334;12.396;2023-07-28T09:31:47;99265.81;;;33.04;45.35
54850;BME280;47660;51.334;12.396;2023-07-28T09:34:13;99279.44;;;31.99;46.57
54850;BME280;47660;51.334;12.396;2023-07-28T09:36:48;99277.41;;;33.27;43.81
54850;BME280;47660;51.334;12.396;2023-07-28T09:39:19;99262.97;;;32.63;44.85
54850;BME280;47660;51.334;12.396;2023-07-28T09:41:48;99286.19;;;33.08;43.61
54850;BME280;47660;51.334;12.396;2023-07-28T09:44:14;99279.59;;;33.66;42.42
54850;BME280;47660;51.334;12.396;2023-07-28T09:49:27;99286.19;;;33.81;43.65
54850;BME280;47660;51.334;12.396;2023-07-28T09:51:54;99279.34;;;33.62;42.77
54850;BME280;47660;51.334;12.396;2023-07-28T09:54:25;99288.75;;;34.58;42.01
54850;BME280;47660;51.334;12.396;2023-07-28T09:56:59;99296.72;;;34.65;41.62
54850;BME280;47660;51.334;12.396;2023-07-28T09:59:32;99285.75;;;34.39;42.17
54850;BME280;47660;51.334;12.396;2023-07-28T10:02:01;99293.66;;;33.39;43.25
54850;BME280;47660;51.334;12.396;2023-07-28T10:04:29;99292.81;;;33.80;42.88
54850;BME280;47660;51.334;12.396;2023-07-28T10:06:58;99288.28;;;34.35;42.12
54850;BME280;47660;51.334;12.396;2023-07-28T10:09:34;99290.81;;;35.27;40.27
54850;BME280;47660;51.334;12.396;2023-07-28T10:12:02;99277.19;;;36.00;37.81
54850;BME280;47660;51.334;12.396;2023-07-28T10:14:30;99295.66;;;34.56;40.28
54850;BME280;47660;51.334;12.396;2023-07-28T10:17:00;99287.34;;;35.11;39.62
54850;BME280;47660;51.334;12.396;2023-07-28T10:19:34;99296.38;;;33.90;41.19
54850;BME280;47660;51.334;12.396;2023-07-28T10:22:07;99288.31;;;35.31;39.72
54850;BME280;47660;51.334;12.396;2023-07-28T10:24:50;99298.69;;;35.09;39.80
54850;BME280;47660;51.334;12.396;2023-07-28T10:27:38;99290.41;;;34.54;39.90
54850;BME280;47660;51.334;12.396;2023-07-28T10:30:11;99295.78;;;34.85;40.38
54850;BME280;47660;51.334;12.396;2023-07-28T10:32:42;99292.22;;;34.09;40.93
54850;BME280;47660;51.334;12.396;2023-07-28T10:37:46;99293.84;;;34.86;39.35
54850;BME280;47660;51.334;12.396;2023-07-28T10:40:27;99305.66;;;34.97;39.61
54850;BME280;47660;51.334;12.396;2023-07-28T10:42:55;99306.44;;;36.06;38.77
54850;BME280;47660;51.334;12.396;2023-07-28T10:45:25;99308.75;;;35.30;39.30
54850;BME280;47660;51.334;12.396;2023-07-28T10:47:53;99299.88;;;34.32;40.18
54850;BME280;47660;51.334;12.396;2023-07-28T10:50:26;99308.66;;;36.04;38.16
54850;BME280;47660;51.334;12.396;2023-07-28T10:52:52;99306.69;;;36.10;37.75
54850;BME280;47660;51.334;12.396;2023-07-28T10:55:25;99313.91;;;36.30;35.97
54850;BME280;47660;51.334;12.396;2023-07-28T10:57:52;99303.28;;;36.13;36.38
54850;BME280;47660;51.334;12.396;2023-07-28T11:00:22;99303.41;;;34.54;37.95
54850;BME280;47660;51.334;12.396;2023-07-28T11:02:52;99297.66;;;36.23;35.64
54850;BME280;47660;51.334;12.396;2023-07-28T11:05:36;99295.41;;;36.50;35.72
54850;BME280;47660;51.334;12.396;2023-07-28T11:08:02;99296.09;;;34.73;37.85
54850;BME280;47660;51.334;12.396;2023-07-28T11:10:31;99309.84;;;34.84;38.05
54850;BME280;47660;51.334;12.396;2023-07-28T11:13:05;99305.00;;;34.65;38.76
54850;BME280;47660;51.334;12.396;2023-07-28T11:15:36;99304.34;;;34.02;39.52
54850;BME280;47660;51.334;12.396;2023-07-28T11:18:04;99299.69;;;33.82;39.58
54850;BME280;47660;51.334;12.396;2023-07-28T11:20:34;99301.19;;;35.06;37.89
54850;BME280;47660;51.334;12.396;2023-07-28T11:23:06;99289.16;;;37.21;34.70
54850;BME280;47660;51.334;12.396;2023-07-28T11:25:37;99297.28;;;35.12;37.76
54850;BME280;47660;51.334;12.396;2023-07-28T11:28:03;99303.53;;;34.78;39.44
54850;BME280;47660;51.334;12.396;2023-07-28T11:30:32;99299.19;;;35.46;37.49
54850;BME280;47660;51.334;12.396;2023-07-28T11:33:03;99303.56;;;33.81;39.75
54850;BME280;47660;51.334;12.396;2023-07-28T11:35:28;99298.53;;;34.19;39.40
54850;BME280;47660;51.334;12.396;2023-07-28T11:37:54;99298.88;;;33.82;40.01
54850;BME280;47660;51.334;12.396;2023-07-28T11:40:21;99296.41;;;34.72;38.73
54850;BME280;47660;51.334;12.396;2023-07-28T11:42:55;99288.78;;;36.89;35.91
54850;BME280;47660;51.334;12.396;2023-07-28T11:45:23;99287.59;;;35.15;37.25
54850;BME280;47660;51.334;12.396;2023-07-28T11:50:28;99283.63;;;36.82;35.39
54850;BME280;47660;51.334;12.396;2023-07-28T11:53:00;99287.66;;;37.62;34.68
54850;BME280;47660;51.334;12.396;2023-07-28T11:55:28;99281.69;;;38.01;34.26
54850;BME280;47660;51.334;12.396;2023-07-28T11:57:54;99292.66;;;38.07;34.40
54850;BME280;47660;51.334;12.396;2023-07-28T12:00:39;99292.16;;;37.24;34.91
54850;BME280;47660;51.334;12.396;2023-07-28T12:03:09;99301.41;;;36.33;35.94
54850;BME280;47660;51.334;12.396;2023-07-28T12:05:35;99304.34;;;36.41;36.03
54850;BME280;47660;51.334;12.396;2023-07-28T12:08:01;99305.16;;;36.47;36.38
54850;BME280;47660;51.334;12.396;2023-07-28T12:10:28;99312.06;;;36.45;35.26
54850;BME280;47660;51.334;12.396;2023-07-28T12:13:06;99303.06;;;38.29;33.97
54850;BME280;47660;51.334;12.396;2023-07-28T12:15:33;99307.47;;;37.36;34.91
54850;BME280;47660;51.334;12.396;2023-07-28T12:18:13;99305.88;;;37.82;34.37
54850;BME280;47660;51.334;12.396;2023-07-28T12:20:49;99307.16;;;38.59;32.57
54850;BME280;47660;51.334;12.396;2023-07-28T12:23:24;99304.22;;;38.92;32.38
54850;BME280;47660;51.334;12.396;2023-07-28T12:25:52;99303.97;;;36.53;34.50
54850;BME280;47660;51.334;12.396;2023-07-28T12:28:23;99322.16;;;35.81;36.75
54850;BME280;47660;51.334;12.396;2023-07-28T12:30:49;99317.78;;;36.97;34.52
54850;BME280;47660;51.334;12.396;2023-07-28T12:33:16;99318.44;;;35.91;35.51
54850;BME280;47660;51.334;12.396;2023-07-28T12:35:51;99307.63;;;36.68;34.04
54850;BME280;47660;51.334;12.396;2023-07-28T12:38:17;99324.75;;;36.51;34.68
54850;BME280;47660;51.334;12.396;2023-07-28T12:40:43;99303.72;;;37.79;33.09
54850;BME280;47660;51.334;12.396;2023-07-28T12:43:11;99304.56;;;36.50;34.49
54850;BME280;47660;51.334;12.396;2023-07-28T12:45:40;99323.84;;;35.77;36.29
54850;BME280;47660;51.334;12.396;2023-07-28T12:48:08;99328.88;;;34.90;37.41
54850;BME280;47660;51.334;12.396;2023-07-28T12:50:44;99317.22;;;37.52;34.48
54850;BME280;47660;51.334;12.396;2023-07-28T12:53:29;99324.13;;;38.58;33.35
54850;BME280;47660;51.334;12.396;2023-07-28T12:55:55;99319.03;;;37.24;34.26
54850;BME280;47660;51.334;12.396;2023-07-28T12:58:20;99334.88;;;36.12;35.65
54850;BME280;47660;51.334;12.396;2023-07-28T13:00:49;99338.78;;;35.76;36.30
54850;BME280;47660;51.334;12.396;2023-07-28T13:03:14;99345.56;;;36.19;36.26
54850;BME280;47660;51.334;12.396;2023-07-28T13:05:42;99330.38;;;38.08;33.30